createdAt,value
2023-04-20T00:01:17.736Z,82.40
2023-04-20T00:03:44.994Z,82.50
2023-04-20T00:06:12.945Z,82.80
2023-04-20T00:08:40.420Z,82.70
2023-04-20T00:11:07.796Z,82.50
2023-04-20T00:13:35.681Z,82.30
2023-04-20T00:16:03.446Z,82.30
2023-04-20T00:18:30.477Z,82.40
2023-04-20T00:20:57.718Z,82.40
2023-04-20T00:23:24.905Z,82.40
2023-04-20T00:25:52.522Z,82.40
2023-04-20T00:28:19.560Z,82.60
2023-04-20T00:30:46.801Z,82.70
2023-04-20T00:33:14.000Z,82.70
2023-04-20T00:35:41.273Z,82.60
2023-04-20T00:38:08.552Z,82.50
2023-04-20T00:40:36.166Z,82.40
2023-04-20T00:43:10.157Z,82.40
2023-04-20T00:45:37.912Z,82.50
2023-04-20T00:48:05.733Z,82.50
2023-04-20T00:50:34.289Z,82.50
2023-04-20T00:53:02.501Z,82.40
2023-04-20T00:55:30.799Z,82.30
2023-04-20T00:57:59.241Z,82.30
2023-04-20T01:00:27.949Z,82.30
2023-04-20T01:02:55.091Z,82.30
2023-04-20T01:05:22.511Z,82.20
2023-04-20T01:07:50.545Z,82.20
2023-04-20T01:10:18.039Z,82.40
2023-04-20T01:12:45.977Z,82.40
2023-04-20T01:15:13.219Z,82.50
2023-04-20T01:17:43.187Z,82.40
2023-04-20T01:20:15.151Z,82.30
2023-04-20T01:22:46.654Z,82.40
2023-04-20T01:25:14.133Z,82.40
2023-04-20T01:27:41.234Z,82.60
2023-04-20T01:30:08.882Z,82.50
2023-04-20T01:32:36.075Z,82.30
2023-04-20T01:35:03.934Z,82.40
2023-04-20T01:37:30.991Z,82.30
2023-04-20T01:39:58.566Z,82.30
2023-04-20T01:42:26.097Z,82.30
2023-04-20T01:44:53.918Z,82.30
2023-04-20T01:47:21.064Z,82.40
2023-04-20T01:49:48.529Z,82.40
2023-04-20T01:52:16.004Z,82.30
2023-04-20T01:54:43.294Z,82.40
2023-04-20T01:57:10.599Z,82.50
2023-04-20T01:59:38.062Z,82.30
2023-04-20T02:02:05.307Z,82.30
2023-04-20T02:04:32.804Z,82.30
2023-04-20T02:06:59.928Z,82.40
2023-04-20T02:09:27.104Z,82.30
2023-04-20T02:11:54.947Z,82.30
2023-04-20T02:14:22.757Z,82.30
2023-04-20T02:16:50.460Z,82.30
2023-04-20T02:19:17.881Z,82.30
2023-04-20T02:21:45.111Z,82.30
2023-04-20T02:24:12.170Z,82.40
2023-04-20T02:26:39.243Z,82.10
2023-04-20T02:29:06.583Z,81.90
2023-04-20T02:31:34.703Z,81.90
2023-04-20T02:34:01.977Z,82.00
2023-04-20T02:36:30.487Z,82.20
2023-04-20T02:38:57.980Z,82.40
2023-04-20T02:41:25.136Z,82.50
2023-04-20T02:43:52.199Z,82.40
2023-04-20T02:46:19.344Z,82.30
2023-04-20T02:48:46.757Z,82.40
2023-04-20T02:51:14.259Z,82.60
2023-04-20T02:53:41.344Z,82.70
2023-04-20T02:56:08.474Z,82.60
2023-04-20T02:58:37.079Z,82.50
2023-04-20T03:01:04.576Z,82.40
2023-04-20T03:03:32.602Z,82.50
2023-04-20T03:06:00.501Z,82.50
2023-04-20T03:08:27.660Z,82.60
2023-04-20T03:10:55.545Z,82.60
2023-04-20T03:13:23.023Z,82.60
2023-04-20T03:15:51.002Z,82.60
2023-04-20T03:18:18.363Z,82.30
2023-04-20T03:20:45.720Z,82.20
2023-04-20T03:23:12.822Z,82.30
2023-04-20T03:25:39.885Z,82.20
2023-04-20T03:28:07.629Z,82.10
2023-04-20T03:30:34.833Z,82.00
2023-04-20T03:33:01.941Z,82.10
2023-04-20T03:35:28.991Z,82.10
2023-04-20T03:37:58.893Z,82.30
2023-04-20T03:40:26.085Z,82.30
2023-04-20T03:42:53.808Z,82.30
2023-04-20T03:45:21.323Z,82.20
2023-04-20T03:47:48.662Z,82.30
2023-04-20T03:50:15.720Z,82.20
2023-04-20T03:52:43.024Z,82.40
2023-04-20T03:55:10.342Z,82.50
2023-04-20T03:57:40.761Z,82.50
2023-04-20T04:00:08.266Z,82.50
2023-04-20T04:02:38.034Z,82.50
2023-04-20T04:05:06.001Z,82.50
2023-04-20T04:07:33.331Z,82.50
2023-04-20T04:10:00.407Z,82.50
2023-04-20T04:12:27.710Z,82.50
2023-04-20T04:14:54.922Z,82.60
2023-04-20T04:17:21.960Z,82.60
2023-04-20T04:19:50.312Z,82.80
2023-04-20T04:22:17.441Z,82.90
2023-04-20T04:24:44.690Z,82.80
2023-04-20T04:27:14.398Z,82.80
2023-04-20T04:29:42.131Z,82.90
2023-04-20T04:32:10.639Z,82.80
2023-04-20T04:34:38.332Z,82.50
2023-04-20T04:37:05.679Z,82.50
2023-04-20T04:39:33.037Z,82.60
2023-04-20T04:42:00.815Z,82.80
2023-04-20T04:44:30.567Z,82.80
2023-04-20T04:46:57.874Z,82.90
2023-04-20T04:49:25.290Z,82.90
2023-04-20T04:51:52.720Z,82.60
2023-04-20T04:54:19.770Z,83.00
2023-04-20T04:56:46.888Z,82.80
2023-04-20T04:59:13.894Z,82.60
2023-04-20T05:01:41.242Z,82.80
2023-04-20T05:04:08.798Z,82.90
2023-04-20T05:06:36.887Z,83.00
2023-04-20T05:09:05.027Z,83.00
2023-04-20T05:11:33.373Z,83.10
2023-04-20T05:14:03.110Z,82.90
2023-04-20T05:16:30.289Z,82.90
2023-04-20T05:18:57.660Z,82.60
2023-04-20T05:21:25.206Z,83.00
2023-04-20T05:23:52.435Z,82.80
2023-04-20T05:26:19.872Z,82.80
2023-04-20T05:28:47.781Z,82.80
2023-04-20T05:31:14.867Z,82.90
2023-04-20T05:33:42.479Z,83.10
2023-04-20T05:36:10.699Z,83.00
2023-04-20T05:38:38.432Z,82.90
2023-04-20T05:41:05.915Z,83.00
2023-04-20T05:43:33.120Z,82.90
2023-04-20T05:46:00.295Z,82.90
2023-04-20T05:48:30.203Z,82.80
2023-04-20T05:50:59.062Z,82.90
2023-04-20T05:53:26.487Z,82.80
2023-04-20T05:55:53.556Z,82.80
2023-04-20T05:58:21.072Z,82.80
2023-04-20T06:00:49.809Z,82.80
2023-04-20T06:03:17.597Z,82.80
2023-04-20T06:05:45.053Z,82.50
2023-04-20T06:08:13.553Z,82.50
2023-04-20T06:10:40.789Z,82.40
2023-04-20T06:13:08.029Z,82.20
2023-04-20T06:15:35.120Z,82.10
2023-04-20T06:18:02.460Z,81.90
2023-04-20T06:20:29.557Z,81.80
2023-04-20T06:22:56.811Z,81.20
2023-04-20T06:25:25.977Z,81.70
2023-04-20T06:27:53.194Z,82.00
2023-04-20T06:30:20.504Z,81.70
2023-04-20T06:32:47.661Z,81.70
2023-04-20T06:35:15.007Z,81.60
2023-04-20T06:37:42.138Z,81.40
2023-04-20T06:40:09.726Z,81.70
2023-04-20T06:42:37.617Z,81.70
2023-04-20T06:45:06.389Z,81.20
2023-04-20T06:47:34.981Z,81.00
2023-04-20T06:50:03.105Z,80.70
2023-04-20T06:52:31.525Z,81.00
2023-04-20T06:54:58.820Z,80.90
2023-04-20T06:57:26.479Z,80.30
2023-04-20T06:59:53.538Z,80.80
2023-04-20T07:02:20.631Z,81.00
2023-04-20T07:04:48.619Z,81.40
2023-04-20T07:07:15.988Z,81.60
2023-04-20T07:09:43.597Z,81.30
2023-04-20T07:12:12.547Z,81.00
2023-04-20T07:14:39.815Z,81.60
2023-04-20T07:17:07.124Z,82.00
2023-04-20T07:19:34.451Z,81.80
2023-04-20T07:22:02.247Z,81.30
2023-04-20T07:24:30.128Z,80.40
2023-04-20T07:26:57.473Z,80.60
2023-04-20T07:29:24.726Z,80.50
2023-04-20T07:31:51.979Z,80.70
2023-04-20T07:34:19.282Z,80.80
2023-04-20T07:36:46.901Z,80.50
2023-04-20T07:39:14.642Z,80.70
2023-04-20T07:41:41.694Z,81.20
2023-04-20T07:44:08.778Z,80.90
2023-04-20T07:46:36.225Z,80.30
2023-04-20T07:49:03.372Z,80.10
2023-04-20T07:51:30.857Z,80.60
2023-04-20T07:53:58.322Z,80.60
2023-04-20T07:56:25.564Z,80.20
2023-04-20T07:58:52.601Z,80.00
2023-04-20T08:01:23.785Z,80.40
2023-04-20T08:03:51.266Z,80.60
2023-04-20T08:06:18.865Z,80.30
2023-04-20T08:08:46.398Z,80.30
2023-04-20T08:11:13.601Z,80.20
2023-04-20T08:13:41.766Z,80.20
2023-04-20T08:16:08.925Z,80.10
2023-04-20T08:18:36.033Z,79.70
2023-04-20T08:21:03.209Z,79.70
2023-04-20T08:23:30.161Z,79.80
2023-04-20T08:26:00.611Z,80.10
2023-04-20T08:28:33.380Z,79.80
2023-04-20T08:31:01.981Z,79.90
2023-04-20T08:33:29.108Z,79.50
2023-04-20T08:35:56.291Z,80.00
2023-04-20T08:38:33.686Z,79.80
2023-04-20T08:41:01.754Z,79.80
2023-04-20T08:43:29.221Z,79.80
2023-04-20T08:45:59.239Z,80.30
2023-04-20T08:48:28.233Z,80.40
2023-04-20T08:50:56.739Z,80.40
2023-04-20T08:53:23.964Z,80.20
2023-04-20T08:55:51.184Z,80.10
2023-04-20T08:58:19.606Z,80.00
2023-04-20T09:00:47.643Z,79.60
2023-04-20T09:03:15.011Z,79.10
2023-04-20T09:05:44.746Z,79.70
2023-04-20T09:08:12.244Z,80.10
2023-04-20T09:10:43.480Z,80.00
2023-04-20T09:13:21.975Z,79.80
2023-04-20T09:15:49.177Z,79.50
2023-04-20T09:18:17.300Z,79.30
2023-04-20T09:20:44.897Z,79.00
2023-04-20T09:23:19.273Z,79.70
2023-04-20T09:25:47.624Z,79.60
2023-04-20T09:28:14.707Z,79.30
2023-04-20T09:30:47.166Z,79.70
2023-04-20T09:33:15.015Z,79.60
2023-04-20T09:35:42.855Z,79.70
2023-04-20T09:38:11.794Z,80.00
2023-04-20T09:40:39.003Z,79.90
2023-04-20T09:43:19.595Z,79.90
2023-04-20T09:45:47.008Z,79.70
2023-04-20T09:48:19.649Z,77.90
2023-04-20T09:50:49.634Z,78.30
2023-04-20T09:53:18.340Z,78.50
2023-04-20T09:55:49.588Z,78.50
2023-04-20T09:58:21.381Z,76.20
2023-04-20T10:00:49.683Z,75.10
2023-04-20T10:03:18.739Z,73.30
2023-04-20T10:05:46.569Z,72.30
2023-04-20T10:08:13.896Z,72.30
2023-04-20T10:10:45.483Z,73.40
2023-04-20T10:13:12.926Z,73.80
2023-04-20T10:15:41.205Z,74.20
2023-04-20T10:18:18.853Z,73.20
2023-04-20T10:20:46.531Z,73.40
2023-04-20T10:23:16.933Z,73.40
2023-04-20T10:25:45.929Z,74.30
2023-04-20T10:28:13.664Z,74.60
2023-04-20T10:30:51.445Z,73.30
2023-04-20T10:33:18.689Z,73.10
2023-04-20T10:35:55.325Z,73.90
2023-04-20T10:38:31.134Z,73.10
2023-04-20T10:41:09.795Z,73.20
2023-04-20T10:43:39.265Z,72.30
2023-04-20T10:46:22.880Z,72.10
2023-04-20T10:48:57.029Z,72.90
2023-04-20T10:51:24.563Z,74.20
2023-04-20T10:54:01.669Z,75.20
2023-04-20T10:56:29.170Z,74.60
2023-04-20T10:59:07.085Z,72.60
2023-04-20T11:01:34.187Z,72.10
2023-04-20T11:04:01.603Z,70.80
2023-04-20T11:06:28.938Z,69.80
2023-04-20T11:08:56.591Z,69.60
2023-04-20T11:11:25.719Z,68.90
2023-04-20T11:13:53.654Z,69.80
2023-04-20T11:16:20.804Z,69.20
2023-04-20T11:18:54.294Z,68.50
2023-04-20T11:21:23.473Z,68.20
2023-04-20T11:23:50.820Z,68.80
2023-04-20T11:26:18.379Z,69.00
2023-04-20T11:28:55.171Z,69.10
2023-04-20T11:31:23.672Z,69.10
2023-04-20T11:33:51.657Z,66.80
2023-04-20T11:36:22.726Z,65.90
2023-04-20T11:38:50.083Z,65.10
2023-04-20T11:41:17.582Z,65.40
2023-04-20T11:43:46.084Z,66.30
2023-04-20T11:46:15.052Z,66.20
2023-04-20T11:48:42.164Z,65.40
2023-04-20T11:51:09.521Z,64.10
2023-04-20T11:53:37.707Z,64.40
2023-04-20T11:56:05.796Z,64.70
2023-04-20T11:58:32.814Z,65.30
2023-04-20T12:01:01.224Z,64.80
2023-04-20T12:03:28.767Z,64.60
2023-04-20T12:05:56.408Z,65.40
2023-04-20T12:08:24.942Z,66.00
2023-04-20T12:10:52.035Z,66.80
2023-04-20T12:13:19.004Z,65.80
2023-04-20T12:15:46.192Z,65.40
2023-04-20T12:18:13.330Z,65.60
2023-04-20T12:20:40.558Z,65.10
2023-04-20T12:23:08.835Z,64.10
2023-04-20T12:25:35.858Z,64.30
2023-04-20T12:28:07.196Z,64.50
2023-04-20T12:30:37.500Z,64.00
2023-04-20T12:33:04.793Z,64.30
2023-04-20T12:35:31.948Z,64.20
2023-04-20T12:37:59.838Z,63.80
2023-04-20T12:40:27.622Z,64.50
2023-04-20T12:42:55.182Z,65.10
2023-04-20T12:45:22.440Z,63.90
2023-04-20T12:47:50.657Z,64.00
2023-04-20T12:50:19.219Z,64.50
2023-04-20T12:52:46.378Z,64.30
2023-04-20T12:55:14.818Z,62.10
2023-04-20T12:57:41.985Z,62.10
2023-04-20T13:00:10.592Z,62.80
2023-04-20T13:02:39.386Z,62.90
2023-04-20T13:05:07.395Z,63.20
2023-04-20T13:07:34.401Z,64.00
2023-04-20T13:10:01.472Z,64.10
2023-04-20T13:12:28.539Z,63.30
2023-04-20T13:14:55.790Z,63.00
2023-04-20T13:17:22.857Z,63.00
2023-04-20T13:19:50.572Z,63.10
2023-04-20T13:22:19.060Z,62.80
2023-04-20T13:24:46.395Z,62.90
2023-04-20T13:27:14.924Z,63.00
2023-04-20T13:29:42.390Z,62.80
2023-04-20T13:32:10.502Z,62.10
2023-04-20T13:34:37.927Z,62.00
2023-04-20T13:37:05.941Z,62.00
2023-04-20T13:39:33.200Z,61.60
2023-04-20T13:42:00.338Z,60.20
2023-04-20T13:44:27.451Z,59.70
2023-04-20T13:46:54.718Z,60.20
2023-04-20T13:49:23.103Z,60.20
2023-04-20T13:51:50.679Z,60.70
2023-04-20T13:54:18.475Z,61.10
2023-04-20T13:56:46.274Z,61.10
2023-04-20T13:59:13.536Z,60.70
2023-04-20T14:01:41.503Z,60.70
2023-04-20T14:04:10.286Z,60.30
2023-04-20T14:06:38.685Z,60.80
2023-04-20T14:09:05.957Z,60.20
2023-04-20T14:11:33.258Z,60.60
2023-04-20T14:14:00.305Z,61.50
2023-04-20T14:16:27.720Z,62.00
2023-04-20T14:18:55.478Z,61.50
2023-04-20T14:21:24.214Z,61.40
2023-04-20T14:23:53.743Z,60.90
2023-04-20T14:26:21.149Z,61.30
2023-04-20T14:28:48.762Z,61.30
2023-04-20T14:31:17.071Z,61.70
2023-04-20T14:33:45.064Z,62.10
2023-04-20T14:36:12.239Z,62.80
2023-04-20T14:38:39.638Z,62.10
2023-04-20T14:41:08.109Z,61.60
2023-04-20T14:43:35.926Z,62.10
2023-04-20T14:46:08.888Z,62.60
2023-04-20T14:48:39.448Z,62.80
2023-04-20T14:51:07.070Z,63.20
2023-04-20T14:53:34.814Z,63.40
2023-04-20T14:56:02.105Z,63.10
2023-04-20T14:58:31.269Z,63.10
2023-04-20T15:00:58.488Z,62.90
2023-04-20T15:03:25.520Z,63.40
2023-04-20T15:05:53.366Z,63.40
2023-04-20T15:08:20.524Z,63.50
2023-04-20T15:10:47.970Z,63.90
2023-04-20T15:13:15.248Z,64.00
2023-04-20T15:18:14.564Z,64.80
2023-04-20T15:20:41.852Z,65.00
2023-04-20T15:23:09.281Z,65.20
2023-04-20T15:25:36.330Z,65.00
2023-04-20T15:28:03.582Z,65.20
2023-04-20T15:30:31.212Z,65.50
2023-04-20T15:33:05.246Z,65.20
2023-04-20T15:35:33.230Z,64.60
2023-04-20T15:38:01.483Z,64.10
2023-04-20T15:40:28.847Z,64.40
2023-04-20T15:42:56.431Z,63.60
2023-04-20T15:45:23.670Z,64.10
2023-04-20T15:47:51.645Z,64.30
2023-04-20T15:50:19.115Z,64.60
2023-04-20T15:52:49.952Z,64.40
2023-04-20T15:55:17.891Z,64.70
2023-04-20T15:57:45.401Z,65.00
2023-04-20T16:00:12.978Z,65.20
2023-04-20T16:02:40.473Z,65.20
2023-04-20T16:05:08.324Z,65.50
2023-04-20T16:07:35.970Z,65.30
2023-04-20T16:10:03.808Z,65.30
2023-04-20T16:12:30.848Z,65.30
2023-04-20T16:14:58.153Z,65.40
2023-04-20T16:17:25.651Z,65.10
2023-04-20T16:19:52.648Z,65.30
2023-04-20T16:22:19.830Z,65.40
2023-04-20T16:24:48.384Z,65.30
2023-04-20T16:27:15.452Z,65.60
2023-04-20T16:29:44.703Z,65.60
2023-04-20T16:32:12.610Z,65.00
2023-04-20T16:34:40.123Z,65.10
2023-04-20T16:37:07.230Z,65.10
2023-04-20T16:39:34.497Z,65.00
2023-04-20T16:42:02.039Z,65.00
2023-04-20T16:44:29.189Z,64.90
2023-04-20T16:46:56.607Z,64.70
2023-04-20T16:49:23.870Z,64.70
2023-04-20T16:51:51.822Z,64.90
2023-04-20T16:54:19.311Z,64.90
2023-04-20T16:56:46.508Z,64.80
2023-04-20T16:59:14.036Z,65.00
2023-04-20T17:01:41.267Z,65.10
2023-04-20T17:04:08.588Z,64.90
2023-04-20T17:06:36.005Z,64.90
2023-04-20T17:09:07.384Z,64.90
2023-04-20T17:11:38.996Z,65.10
2023-04-20T17:14:06.702Z,65.20
2023-04-20T17:16:34.106Z,65.20
2023-04-20T17:19:03.343Z,65.30
2023-04-20T17:21:30.983Z,65.30
2023-04-20T17:23:59.766Z,65.20
2023-04-20T17:26:26.870Z,65.10
2023-04-20T17:28:54.067Z,65.20
2023-04-20T17:31:21.470Z,65.10
2023-04-20T17:33:48.827Z,65.30
2023-04-20T17:36:16.131Z,65.30
2023-04-20T17:38:43.451Z,65.50
2023-04-20T17:41:10.700Z,65.60
2023-04-20T17:43:40.658Z,65.50
2023-04-20T17:46:08.517Z,65.40
2023-04-20T17:48:35.786Z,65.50
2023-04-20T17:51:02.864Z,65.60
2023-04-20T17:53:30.320Z,65.70
2023-04-20T17:55:57.439Z,65.70
2023-04-20T17:58:25.203Z,65.80
2023-04-20T18:00:52.438Z,65.80
2023-04-20T18:03:20.311Z,65.50
2023-04-20T18:05:47.786Z,65.50
2023-04-20T18:08:15.766Z,65.20
2023-04-20T18:10:42.894Z,65.30
2023-04-20T18:13:10.369Z,65.40
2023-04-20T18:15:38.445Z,65.30
2023-04-20T18:18:05.763Z,65.50
2023-04-20T18:20:33.021Z,65.40
2023-04-20T18:22:59.994Z,65.50
2023-04-20T18:25:27.744Z,65.40
2023-04-20T18:27:56.114Z,65.50
2023-04-20T18:30:23.219Z,65.50
2023-04-20T18:32:50.322Z,65.60
2023-04-20T18:35:19.929Z,65.70
2023-04-20T18:37:46.920Z,65.70
2023-04-20T18:40:16.077Z,65.70
2023-04-20T18:42:43.611Z,65.90
2023-04-20T18:45:12.664Z,66.10
2023-04-20T18:47:39.909Z,66.10
2023-04-20T18:50:07.053Z,66.30
2023-04-20T18:52:34.829Z,66.30
2023-04-20T18:55:02.683Z,66.30
2023-04-20T18:57:30.220Z,66.30
2023-04-20T18:59:58.145Z,66.30
2023-04-20T19:02:25.762Z,66.40
2023-04-20T19:04:53.122Z,66.60
2023-04-20T19:07:20.937Z,66.70
2023-04-20T19:09:49.632Z,66.60
2023-04-20T19:12:17.161Z,66.70
2023-04-20T19:14:44.180Z,66.90
2023-04-20T19:17:11.380Z,67.10
2023-04-20T19:19:38.838Z,67.20
2023-04-20T19:22:06.306Z,67.30
2023-04-20T19:24:33.866Z,67.40
2023-04-20T19:27:01.435Z,67.40
2023-04-20T19:29:29.020Z,67.60
2023-04-20T19:31:56.227Z,67.70
2023-04-20T19:34:23.327Z,67.90
2023-04-20T19:36:50.426Z,68.00
2023-04-20T19:39:17.730Z,68.10
2023-04-20T19:41:44.697Z,68.00
2023-04-20T19:44:12.773Z,68.00
2023-04-20T19:46:40.852Z,68.00
2023-04-20T19:49:08.079Z,68.00
2023-04-20T19:51:35.229Z,68.30
2023-04-20T19:54:03.834Z,68.30
2023-04-20T19:56:31.515Z,68.40
2023-04-20T19:58:58.574Z,68.30
2023-04-20T20:01:25.732Z,68.40
2023-04-20T20:03:53.184Z,68.30
2023-04-20T20:06:22.189Z,68.40
2023-04-20T20:08:49.538Z,68.50
2023-04-20T20:11:16.571Z,68.70
2023-04-20T20:13:43.612Z,68.70
2023-04-20T20:16:10.796Z,68.80
2023-04-20T20:18:40.932Z,68.70
2023-04-20T20:21:08.102Z,69.00
2023-04-20T20:23:35.344Z,69.00
2023-04-20T20:26:03.602Z,68.80
2023-04-20T20:28:30.848Z,68.90
2023-04-20T20:30:58.160Z,69.20
2023-04-20T20:33:26.253Z,68.90
2023-04-20T20:35:53.292Z,69.10
2023-04-20T20:38:21.294Z,68.90
2023-04-20T20:40:50.811Z,69.00
2023-04-20T20:43:19.192Z,69.00
2023-04-20T20:45:47.977Z,68.90
2023-04-20T20:48:15.172Z,69.10
2023-04-20T20:50:42.381Z,69.30
2023-04-20T20:53:10.806Z,69.10
2023-04-20T20:55:38.498Z,69.20
2023-04-20T20:58:06.590Z,69.50
2023-04-20T21:00:34.691Z,69.50
2023-04-20T21:03:03.362Z,69.60
2023-04-20T21:05:30.918Z,69.60
2023-04-20T21:07:58.806Z,69.50
2023-04-20T21:10:29.068Z,69.50
2023-04-20T21:12:56.382Z,69.70
2023-04-20T21:15:23.357Z,69.80
2023-04-20T21:17:50.900Z,69.60
2023-04-20T21:20:18.719Z,69.70
2023-04-20T21:22:45.703Z,69.80
2023-04-20T21:25:13.252Z,69.80
2023-04-20T21:27:40.605Z,70.00
2023-04-20T21:30:08.164Z,69.90
2023-04-20T21:32:35.396Z,69.90
2023-04-20T21:35:02.436Z,70.10
2023-04-20T21:37:29.448Z,70.10
2023-04-20T21:39:56.594Z,70.10
2023-04-20T21:42:23.688Z,70.10
2023-04-20T21:44:51.000Z,70.00
2023-04-20T21:47:18.186Z,69.90
2023-04-20T21:49:46.481Z,70.00
2023-04-20T21:52:13.526Z,69.90
2023-04-20T21:54:42.359Z,69.90
2023-04-20T21:57:09.650Z,70.00
2023-04-20T21:59:36.659Z,70.00
2023-04-20T22:02:04.897Z,70.00
2023-04-20T22:04:32.867Z,69.90
2023-04-20T22:07:01.364Z,69.90
2023-04-20T22:09:28.555Z,69.80
2023-04-20T22:11:56.044Z,70.00
2023-04-20T22:14:24.740Z,69.90
2023-04-20T22:16:52.850Z,69.80
2023-04-20T22:19:20.190Z,69.90
2023-04-20T22:21:47.548Z,69.90
2023-04-20T22:24:14.784Z,69.90
2023-04-20T22:26:42.504Z,69.90
2023-04-20T22:29:10.043Z,69.90
2023-04-20T22:31:37.481Z,70.10
2023-04-20T22:34:04.951Z,70.00
2023-04-20T22:36:33.068Z,70.10
2023-04-20T22:39:00.310Z,70.10
2023-04-20T22:41:27.593Z,70.20
2023-04-20T22:43:54.791Z,70.20
2023-04-20T22:46:22.092Z,70.50
2023-04-20T22:48:49.538Z,70.30
2023-04-20T22:51:17.578Z,70.40
2023-04-20T22:53:45.107Z,70.30
2023-04-20T22:56:12.260Z,70.30
2023-04-20T22:58:39.468Z,70.40
2023-04-20T23:01:07.157Z,70.40
2023-04-20T23:03:34.957Z,70.50
2023-04-20T23:06:02.425Z,70.30
2023-04-20T23:08:29.778Z,70.10
2023-04-20T23:10:57.260Z,70.20
2023-04-20T23:13:26.659Z,70.30
2023-04-20T23:15:54.390Z,70.20
2023-04-20T23:18:21.956Z,70.20
2023-04-20T23:20:49.672Z,70.20
2023-04-20T23:23:16.872Z,70.20
2023-04-20T23:25:43.875Z,70.50
2023-04-20T23:28:11.158Z,70.20
2023-04-20T23:30:38.421Z,70.40
2023-04-20T23:33:05.944Z,70.40
2023-04-20T23:35:33.625Z,70.50
2023-04-20T23:38:01.494Z,70.50
2023-04-20T23:40:28.951Z,70.50
2023-04-20T23:42:56.116Z,70.60
2023-04-20T23:45:23.920Z,70.60
2023-04-20T23:47:51.460Z,70.60
2023-04-20T23:50:18.427Z,70.50
2023-04-20T23:52:46.131Z,70.60
2023-04-20T23:55:14.329Z,70.70
2023-04-20T23:57:41.806Z,70.40
